Time;durP1;ratioP1;P1;durP2;ratioP2;P2;SDS_P1;SDS_P2;PMS_P1;PMS_P2;Temp;Humidity;BMP_temperature;BMP_pressure;BME280_temperature;BME280_humidity;BME280_pressure;Samples;Min_cycle;Max_cycle;Signal;HPM_P1;HPM_P2
2023/02/28 00:02:09;;;;;;;2.87;2.53;;;3.90;31.20;;;;;;10356486;28;20230;-72
2023/02/28 00:07:12;;;;;;;3.07;2.53;;;3.90;31.20;;;;;;10360838;28;20701;-72
2023/02/28 00:12:17;;;;;;;3.13;2.57;;;3.90;31.40;;;;;;10362803;28;20226;-72
2023/02/28 00:17:20;;;;;;;2.90;2.70;;;3.80;31.20;;;;;;10365239;28;20241;-72
2023/02/28 00:22:24;;;;;;;2.73;2.43;;;3.80;31.30;;;;;;10364045;28;20309;-72
2023/02/28 00:27:28;;;;;;;2.97;2.70;;;3.70;31.30;;;;;;10364303;28;20234;-72
2023/02/28 00:32:31;;;;;;;2.80;2.50;;;3.70;31.30;;;;;;10364911;28;20309;-72
2023/02/28 00:37:35;;;;;;;2.93;2.47;;;3.70;31.50;;;;;;10362425;28;20242;-72
2023/02/28 00:42:40;;;;;;;2.80;2.60;;;3.60;31.30;;;;;;10364877;28;20237;-72
2023/02/28 00:47:43;;;;;;;2.97;2.77;;;3.60;31.40;;;;;;10363176;28;20622;-72
2023/02/28 00:52:49;;;;;;;2.57;2.37;;;3.60;32.20;;;;;;10364406;28;20310;-72
2023/02/28 00:57:53;;;;;;;3.30;2.60;;;3.50;31.30;;;;;;10361848;28;20234;-72
2023/02/28 01:02:56;;;;;;;3.00;2.80;;;3.60;31.40;;;;;;10364079;28;20229;-72
2023/02/28 01:07:59;;;;;;;3.10;2.80;;;3.50;31.30;;;;;;10363091;28;20234;-72
2023/02/28 01:13:04;;;;;;;3.00;2.70;;;3.50;31.30;;;;;;10362403;28;20597;-72
2023/02/28 01:18:07;;;;;;;2.80;2.60;;;3.50;31.40;;;;;;10362765;28;20238;-72
2023/02/28 01:23:10;;;;;;;2.87;2.50;;;3.40;31.30;;;;;;10360487;28;20833;-72
2023/02/28 01:28:15;;;;;;;2.67;2.40;;;3.30;31.40;;;;;;10363375;28;20226;-72
2023/02/28 01:33:18;;;;;;;3.07;2.70;;;3.30;31.40;;;;;;10361568;28;20719;-71
2023/02/28 01:38:21;;;;;;;5.27;2.80;;;3.30;31.40;;;;;;10361324;28;20238;-72
2023/02/28 01:43:28;;;;;;;2.97;2.73;;;3.40;31.90;;;;;;10362762;28;20230;-72
2023/02/28 01:48:35;;;;;;;2.80;2.60;;;3.20;31.30;;;;;;10361361;28;20241;-72
2023/02/28 01:53:43;;;;;;;3.40;3.10;;;3.20;31.50;;;;;;10362780;28;20991;-75
2023/02/28 01:58:48;;;;;;;2.87;2.57;;;3.20;31.50;;;;;;10353007;28;20897;-74
2023/02/28 02:03:55;;;;;;;3.20;2.90;;;3.10;31.50;;;;;;10330549;28;20730;-74
2023/02/28 02:08:59;;;;;;;2.87;2.60;;;3.10;31.50;;;;;;10337371;28;20237;-74
2023/02/28 02:14:25;;;;;;;3.13;2.73;;;3.10;31.60;;;;;;10360912;28;20233;-72
2023/02/28 02:19:52;;;;;;;2.67;2.47;;;3.00;31.40;;;;;;10359733;28;20233;-75
2023/02/28 02:25:17;;;;;;;2.97;2.67;;;3.00;31.50;;;;;;10361823;28;20732;-74
2023/02/28 02:30:49;;;;;;;3.87;2.90;;;3.00;31.50;;;;;;10359800;28;20695;-74
2023/02/28 02:35:57;;;;;;;3.30;2.43;;;2.90;31.50;;;;;;10359018;28;20234;-75
2023/02/28 02:41:09;;;;;;;3.07;2.77;;;3.00;31.70;;;;;;10358215;28;20230;-74
2023/02/28 02:46:18;;;;;;;3.00;2.73;;;2.90;31.60;;;;;;10359313;28;20218;-74
2023/02/28 02:51:24;;;;;;;2.47;2.27;;;2.80;31.60;;;;;;10359109;28;21336;-74
2023/02/28 02:56:32;;;;;;;2.77;2.57;;;2.80;31.60;;;;;;10361264;28;20237;-75
2023/02/28 03:01:37;;;;;;;2.90;2.47;;;2.80;31.70;;;;;;10359681;28;20229;-74
2023/02/28 03:06:41;;;;;;;3.00;2.70;;;2.80;31.70;;;;;;10359289;28;20241;-75
2023/02/28 03:11:45;;;;;;;2.43;2.23;;;2.70;31.70;;;;;;10356923;28;20238;-75
2023/02/28 03:17:00;;;;;;;2.80;2.60;;;2.70;31.80;;;;;;10358861;28;20234;-75
2023/02/28 03:22:17;;;;;;;2.60;2.40;;;2.70;31.80;;;;;;10355834;28;20296;-75
2023/02/28 03:27:25;;;;;;;2.70;2.50;;;2.60;31.80;;;;;;10355783;28;20713;-74
2023/02/28 03:32:34;;;;;;;2.50;2.30;;;2.60;31.80;;;;;;10359229;28;20237;-75
2023/02/28 03:37:42;;;;;;;3.00;2.70;;;2.60;31.80;;;;;;10359050;28;20234;-75
2023/02/28 03:42:49;;;;;;;3.00;2.70;;;2.60;31.90;;;;;;10363217;28;20323;-74
2023/02/28 03:47:54;;;;;;;2.83;2.50;;;2.60;31.90;;;;;;10367668;28;20238;-74
2023/02/28 03:53:04;;;;;;;3.10;2.80;;;2.50;32.00;;;;;;10366324;28;20230;-74
2023/02/28 03:58:15;;;;;;;3.97;3.03;;;2.40;32.00;;;;;;10366577;28;20337;-75
2023/02/28 04:03:18;;;;;;;3.23;2.93;;;2.40;32.00;;;;;;10365240;28;20226;-75
2023/02/28 04:08:23;;;;;;;2.90;2.67;;;2.40;32.00;;;;;;10366575;28;20242;-74
2023/02/28 04:13:26;;;;;;;4.30;2.70;;;2.40;32.10;;;;;;10365530;28;20226;-74
2023/02/28 04:18:30;;;;;;;3.77;3.20;;;2.40;32.30;;;;;;10366261;28;20746;-74
2023/02/28 04:23:34;;;;;;;3.77;3.37;;;2.40;32.20;;;;;;10359497;28;20679;-74
2023/02/28 04:28:38;;;;;;;3.77;3.23;;;2.30;32.30;;;;;;10375497;28;20237;-75
2023/02/28 04:33:42;;;;;;;3.20;2.93;;;2.30;32.20;;;;;;10363510;28;20238;-74
2023/02/28 04:38:47;;;;;;;3.50;3.20;;;2.30;32.30;;;;;;10366365;28;20703;-75
2023/02/28 04:43:51;;;;;;;3.77;3.03;;;2.30;32.40;;;;;;10363233;28;20321;-74
2023/02/28 04:48:57;;;;;;;3.87;3.50;;;2.30;32.40;;;;;;10364274;28;20265;-74
2023/02/28 04:54:02;;;;;;;3.87;3.33;;;2.30;32.40;;;;;;10365167;28;20257;-76
2023/02/28 04:59:05;;;;;;;3.47;3.20;;;2.30;32.50;;;;;;10362132;28;20234;-75
2023/02/28 05:04:10;;;;;;;3.53;3.23;;;2.20;32.30;;;;;;10363979;28;20249;-75
2023/02/28 05:09:14;;;;;;;4.17;3.77;;;2.30;32.60;;;;;;10364222;28;20233;-75
2023/02/28 05:14:17;;;;;;;4.80;3.63;;;2.20;32.50;;;;;;10365449;28;20233;-75
2023/02/28 05:19:21;;;;;;;3.47;3.17;;;2.30;32.50;;;;;;10360376;28;20230;-75
2023/02/28 05:24:25;;;;;;;4.10;3.70;;;2.20;32.50;;;;;;10362825;28;20398;-74
2023/02/28 05:29:28;;;;;;;3.70;3.40;;;2.20;32.60;;;;;;10358695;28;20237;-75
2023/02/28 05:34:32;;;;;;;3.60;3.30;;;2.10;32.50;;;;;;10361134;28;20233;-75
2023/02/28 05:39:37;;;;;;;5.07;3.57;;;2.30;32.70;;;;;;10362869;28;20237;-74
2023/02/28 05:44:40;;;;;;;3.77;3.40;;;2.10;32.70;;;;;;10361810;28;21347;-74
2023/02/28 05:49:43;;;;;;;3.97;3.57;;;2.10;32.70;;;;;;10361632;28;20238;-74
2023/02/28 05:54:48;;;;;;;4.53;3.83;;;2.10;32.70;;;;;;10360809;28;20230;-75
2023/02/28 05:59:52;;;;;;;3.70;3.40;;;2.10;32.80;;;;;;10361247;28;20230;-75
2023/02/28 06:04:55;;;;;;;4.03;3.73;;;2.00;32.60;;;;;;10361084;28;20285;-75
2023/02/28 06:09:59;;;;;;;3.97;3.67;;;2.00;32.70;;;;;;10359997;28;20238;-75
2023/02/28 06:15:02;;;;;;;4.07;3.67;;;2.00;32.80;;;;;;10361582;28;20230;-73
2023/02/28 06:20:07;;;;;;;4.20;3.80;;;2.00;32.80;;;;;;10359754;28;20241;-75
2023/02/28 06:25:12;;;;;;;5.33;3.53;;;2.00;32.80;;;;;;10359796;28;20238;-73
2023/02/28 06:30:15;;;;;;;4.67;3.70;;;2.00;34.40;;;;;;10359166;28;20622;-73
2023/02/28 06:35:18;;;;;;;4.23;3.83;;;2.00;34.30;;;;;;10357004;28;20230;-73
2023/02/28 06:40:26;;;;;;;4.27;3.83;;;2.10;33.80;;;;;;10356205;28;20266;-73
2023/02/28 06:45:29;;;;;;;4.10;3.70;;;2.20;33.60;;;;;;10358422;28;20276;-73
2023/02/28 06:50:32;;;;;;;4.30;3.90;;;2.20;33.30;;;;;;10359358;28;20504;-73
2023/02/28 06:55:38;;;;;;;5.10;4.60;;;2.20;33.40;;;;;;10358206;28;20835;-73
2023/02/28 07:00:42;;;;;;;5.53;4.53;;;2.10;33.40;;;;;;10357136;28;20226;-73
2023/02/28 07:05:45;;;;;;;4.90;4.50;;;2.10;33.40;;;;;;10357717;28;20222;-74
2023/02/28 07:10:53;;;;;;;4.80;4.33;;;2.10;33.70;;;;;;10359930;28;20222;-73
2023/02/28 07:15:56;;;;;;;4.97;4.43;;;2.10;33.70;;;;;;10356255;28;20265;-73
2023/02/28 07:21:02;;;;;;;5.70;4.97;;;2.20;33.60;;;;;;10357974;28;20230;-73
2023/02/28 07:26:07;;;;;;;5.30;4.80;;;2.10;33.70;;;;;;10355215;28;20305;-73
2023/02/28 07:31:11;;;;;;;5.60;5.10;;;2.20;33.90;;;;;;10359430;28;20238;-73
2023/02/28 07:36:17;;;;;;;5.57;5.07;;;2.20;33.90;;;;;;10355865;28;20605;-73
2023/02/28 07:41:24;;;;;;;6.30;5.67;;;2.30;34.00;;;;;;10354605;28;20226;-73
2023/02/28 07:46:29;;;;;;;6.23;5.63;;;2.40;34.10;;;;;;10359206;28;20724;-73
2023/02/28 07:51:33;;;;;;;6.03;5.47;;;2.40;34.00;;;;;;10359678;28;20230;-73
2023/02/28 07:56:38;;;;;;;5.87;5.37;;;2.50;34.00;;;;;;10358706;28;20230;-72
2023/02/28 08:01:41;;;;;;;5.77;5.07;;;2.50;34.10;;;;;;10356580;28;20600;-72
2023/02/28 08:06:44;;;;;;;5.93;5.33;;;2.70;34.30;;;;;;10356996;28;20736;-72
2023/02/28 08:11:49;;;;;;;6.43;5.83;;;2.80;34.20;;;;;;10358821;28;20226;-71
2023/02/28 08:16:52;;;;;;;6.03;5.53;;;3.00;34.30;;;;;;10359486;28;20726;-71
2023/02/28 08:21:55;;;;;;;6.20;5.60;;;3.10;34.20;;;;;;10358022;28;20233;-70
2023/02/28 08:26:59;;;;;;;6.70;6.10;;;3.30;34.10;;;;;;10357799;28;20241;-70
2023/02/28 08:32:02;;;;;;;6.10;5.33;;;3.40;33.80;;;;;;10363949;28;20687;-70
2023/02/28 08:37:06;;;;;;;7.13;6.20;;;3.60;34.00;;;;;;10362245;28;20234;-70
2023/02/28 08:42:10;;;;;;;6.40;5.80;;;3.80;33.80;;;;;;10362305;28;20317;-70
2023/02/28 08:47:13;;;;;;;5.90;5.37;;;4.10;33.50;;;;;;10362438;28;20234;-70
2023/02/28 08:52:16;;;;;;;7.37;6.30;;;4.20;33.60;;;;;;10363431;28;20222;-70
2023/02/28 08:57:21;;;;;;;7.00;6.30;;;4.40;33.40;;;;;;10363757;28;20226;-69
2023/02/28 09:02:24;;;;;;;6.70;5.97;;;4.60;33.10;;;;;;10364499;28;20647;-69
2023/02/28 09:07:27;;;;;;;6.70;6.00;;;4.80;33.00;;;;;;10362813;28;20588;-69
2023/02/28 09:12:34;;;;;;;7.00;6.30;;;5.00;32.80;;;;;;10363144;28;20225;-72
2023/02/28 09:17:37;;;;;;;6.40;5.80;;;5.10;31.60;;;;;;10362886;28;20241;-69
2023/02/28 09:22:40;;;;;;;6.90;6.20;;;5.20;32.40;;;;;;10363956;28;20233;-69
2023/02/28 09:27:46;;;;;;;7.47;6.17;;;5.30;31.80;;;;;;10362028;28;20241;-69
2023/02/28 09:32:51;;;;;;;6.67;6.07;;;5.40;31.20;;;;;;10360479;28;20237;-69
2023/02/28 09:37:55;;;;;;;6.60;6.00;;;5.50;31.70;;;;;;10362656;28;20617;-69
2023/02/28 09:43:01;;;;;;;6.73;6.13;;;5.60;31.80;;;;;;10361762;28;20234;-69
2023/02/28 09:48:11;;;;;;;7.50;6.80;;;5.70;31.40;;;;;;10362676;28;20234;-69
2023/02/28 09:53:22;;;;;;;6.87;6.13;;;5.80;30.90;;;;;;10360537;28;20249;-69
2023/02/28 09:58:32;;;;;;;6.90;6.30;;;6.00;31.20;;;;;;10361251;28;20681;-69
2023/02/28 10:03:40;;;;;;;6.30;5.70;;;6.10;31.10;;;;;;10358783;28;20226;-71
2023/02/28 10:08:51;;;;;;;6.43;5.83;;;6.30;31.10;;;;;;10359369;28;20226;-69
2023/02/28 10:14:01;;;;;;;6.80;6.20;;;6.40;30.80;;;;;;10361212;28;20230;-70
2023/02/28 10:19:09;;;;;;;7.30;6.60;;;6.50;30.60;;;;;;10357111;28;20229;-68
2023/02/28 10:24:21;;;;;;;6.40;5.80;;;6.60;30.20;;;;;;10361434;28;20236;-69
2023/02/28 10:29:26;;;;;;;7.17;5.87;;;6.70;30.30;;;;;;10358763;28;20230;-69
2023/02/28 10:34:29;;;;;;;6.90;6.30;;;6.80;30.60;;;;;;10359072;28;20241;-68
2023/02/28 10:39:38;;;;;;;6.87;6.27;;;6.90;30.90;;;;;;10360991;28;20277;-71
2023/02/28 10:44:42;;;;;;;6.83;6.23;;;7.10;30.60;;;;;;10359665;28;20310;-69
2023/02/28 10:49:49;;;;;;;7.33;6.63;;;7.20;30.30;;;;;;10356330;28;20460;-70
2023/02/28 10:55:20;;;;;;;7.23;6.47;;;7.30;29.70;;;;;;10360890;28;20607;-72
2023/02/28 11:00:32;;;;;;;7.10;6.47;;;7.40;29.80;;;;;;10356442;28;20225;-70
2023/02/28 11:05:37;;;;;;;7.03;6.43;;;7.50;29.80;;;;;;10358434;28;20714;-70
2023/02/28 11:10:40;;;;;;;7.17;6.47;;;7.60;30.00;;;;;;10354363;28;21137;-70
2023/02/28 11:15:52;;;;;;;7.50;6.43;;;7.70;30.00;;;;;;10357807;28;20234;-70
2023/02/28 11:20:58;;;;;;;7.30;6.60;;;7.70;29.50;;;;;;10356771;28;20255;-70
2023/02/28 11:26:04;;;;;;;7.30;6.67;;;7.80;29.80;;;;;;10355653;28;20246;-70
2023/02/28 11:31:19;;;;;;;6.93;6.27;;;7.90;29.90;;;;;;10350923;28;20318;-70
2023/02/28 11:36:25;;;;;;;6.97;6.27;;;8.00;29.40;;;;;;10351246;28;20284;-70
2023/02/28 11:41:54;;;;;;;7.10;6.47;;;8.10;29.70;;;;;;10346548;28;20250;-70
2023/02/28 11:47:03;;;;;;;7.50;6.80;;;8.10;28.80;;;;;;10354812;28;20280;-69
2023/02/28 11:52:21;;;;;;;7.53;6.67;;;8.10;29.30;;;;;;10356612;28;20648;-69
2023/02/28 11:57:36;;;;;;;7.17;6.50;;;8.20;29.40;;;;;;10354751;28;20636;-70
2023/02/28 12:02:57;;;;;;;7.63;6.93;;;8.20;29.10;;;;;;10353797;28;20228;-70
2023/02/28 12:08:12;;;;;;;7.13;6.47;;;8.30;28.30;;;;;;10359187;28;20226;-72
2023/02/28 12:13:26;;;;;;;7.13;6.53;;;8.20;29.10;;;;;;10360650;28;20226;-72
2023/02/28 12:18:58;;;;;;;6.90;6.20;;;8.20;28.90;;;;;;10360898;28;20234;-72
2023/02/28 12:24:26;;;;;;;7.20;6.50;;;8.20;28.70;;;;;;10363353;28;20226;-72
2023/02/28 12:29:31;;;;;;;6.97;6.37;;;8.20;29.00;;;;;;10362177;28;20241;-72
2023/02/28 12:34:40;;;;;;;9.37;7.80;;;8.20;29.30;;;;;;10362083;28;20246;-73
2023/02/28 12:39:46;;;;;;;6.90;6.20;;;8.20;28.80;;;;;;10363758;28;20230;-72
2023/02/28 12:44:57;;;;;;;8.87;8.07;;;8.20;29.10;;;;;;10361707;28;20666;-72
2023/02/28 12:50:05;;;;;;;7.47;6.27;;;8.20;29.00;;;;;;10366022;28;20241;-73
2023/02/28 12:55:16;;;;;;;6.73;6.13;;;8.20;28.90;;;;;;10364329;28;20226;-72
2023/02/28 13:00:22;;;;;;;6.90;6.27;;;8.20;28.70;;;;;;10363290;28;20729;-72
2023/02/28 13:06:07;;;;;;;7.53;6.87;;;8.20;29.20;;;;;;10365819;28;20233;-73
2023/02/28 13:11:25;;;;;;;7.40;6.27;;;8.20;28.00;;;;;;10364073;28;20221;-73
2023/02/28 13:16:30;;;;;;;8.17;6.80;;;8.20;28.40;;;;;;10357267;28;20238;-73
2023/02/28 13:21:44;;;;;;;7.00;6.30;;;8.20;29.40;;;;;;10363552;28;20226;-73
2023/02/28 13:27:27;;;;;;;6.67;6.10;;;8.20;28.50;;;;;;10351820;28;20241;-73
2023/02/28 13:32:40;;;;;;;7.57;6.10;;;8.20;28.20;;;;;;10344671;28;20225;-73
2023/02/28 13:37:44;;;;;;;7.17;6.33;;;8.20;28.70;;;;;;10348547;28;20241;-70
2023/02/28 13:42:52;;;;;;;6.90;6.30;;;8.30;29.40;;;;;;10350837;28;20230;-71
2023/02/28 13:48:01;;;;;;;7.50;6.80;;;8.30;29.00;;;;;;10350103;28;20321;-71
2023/02/28 13:53:46;;;;;;;6.73;6.13;;;8.40;28.80;;;;;;10349726;28;20384;-69
2023/02/28 13:58:56;;;;;;;7.63;6.90;;;8.40;28.10;;;;;;10336540;28;20234;-69
2023/02/28 14:04:16;;;;;;;7.40;6.80;;;8.50;29.00;;;;;;10352815;28;20230;-69
2023/02/28 14:09:25;;;;;;;6.80;6.20;;;8.50;28.50;;;;;;10354075;28;20233;-69
2023/02/28 14:14:56;;;;;;;7.20;6.50;;;8.50;29.10;;;;;;10352084;28;20642;-72
2023/02/28 14:20:03;;;;;;;6.23;5.70;;;8.60;28.20;;;;;;10339952;28;20245;-73
2023/02/28 14:25:23;;;;;;;6.80;6.20;;;8.60;29.10;;;;;;10349785;28;20233;-72
2023/02/28 14:30:58;;;;;;;7.30;5.93;;;8.70;28.20;;;;;;10349990;28;20249;-72
2023/02/28 14:36:19;;;;;;;7.63;6.93;;;8.70;28.20;;;;;;10347906;28;20222;-72
2023/02/28 14:41:24;;;;;;;7.17;6.47;;;8.80;28.30;;;;;;10345625;28;20245;-73
2023/02/28 14:46:35;;;;;;;7.57;6.87;;;8.80;28.80;;;;;;10347258;28;20296;-72
2023/02/28 14:51:40;;;;;;;7.37;6.67;;;8.80;28.80;;;;;;10348567;28;20257;-72
2023/02/28 14:56:43;;;;;;;8.13;7.23;;;8.80;28.50;;;;;;10351966;28;20233;-72
2023/02/28 15:01:46;;;;;;;7.30;6.63;;;8.80;28.80;;;;;;10350435;28;20506;-74
2023/02/28 15:07:09;;;;;;;7.50;6.77;;;8.70;29.00;;;;;;10361290;28;20792;-72
2023/02/28 15:12:16;;;;;;;7.00;6.27;;;8.70;28.20;;;;;;10359025;28;20233;-74
2023/02/28 15:17:25;;;;;;;8.47;7.53;;;8.80;28.70;;;;;;10359425;28;20226;-74
2023/02/28 15:22:37;;;;;;;7.57;6.77;;;8.80;28.70;;;;;;10356069;28;20890;-71
2023/02/28 15:27:45;;;;;;;7.30;6.70;;;8.80;28.30;;;;;;10355144;28;20237;-74
2023/02/28 15:33:05;;;;;;;7.60;6.80;;;8.80;28.80;;;;;;10357863;28;20496;-72
2023/02/28 15:38:18;;;;;;;7.60;6.87;;;8.80;28.30;;;;;;10363524;28;20229;-74
2023/02/28 15:43:27;;;;;;;7.10;6.50;;;8.90;28.40;;;;;;10368624;28;20233;-74
2023/02/28 15:48:34;;;;;;;7.17;6.57;;;8.90;28.40;;;;;;10360874;28;20234;-69
2023/02/28 15:53:41;;;;;;;7.50;6.80;;;8.90;29.00;;;;;;10363527;28;20230;-69
2023/02/28 15:58:45;;;;;;;7.20;6.40;;;8.90;28.70;;;;;;10362623;28;20230;-69
2023/02/28 16:03:50;;;;;;;7.17;6.47;;;8.90;29.10;;;;;;10365696;28;20222;-72
2023/02/28 16:08:55;;;;;;;7.80;7.03;;;9.00;28.90;;;;;;10365208;28;20234;-69
2023/02/28 16:13:58;;;;;;;7.73;7.03;;;9.00;29.10;;;;;;10362725;28;20292;-72
2023/02/28 16:19:01;;;;;;;7.70;6.90;;;9.00;28.90;;;;;;10365909;28;20242;-69
2023/02/28 16:24:06;;;;;;;8.00;7.03;;;9.00;28.80;;;;;;10362211;28;20688;-69
2023/02/28 16:29:14;;;;;;;7.10;6.50;;;8.90;28.50;;;;;;10362942;28;20246;-70
2023/02/28 16:34:17;;;;;;;9.03;7.33;;;8.90;28.60;;;;;;10364129;28;20226;-69
2023/02/28 16:39:22;;;;;;;9.37;7.80;;;8.80;28.70;;;;;;10363218;28;20611;-73
2023/02/28 16:44:29;;;;;;;9.50;7.40;;;8.70;28.50;;;;;;10362986;28;20244;-70
2023/02/28 16:49:32;;;;;;;8.13;7.13;;;8.60;28.30;;;;;;10361781;28;20249;-71
2023/02/28 16:54:37;;;;;;;7.37;6.67;;;8.50;29.20;;;;;;10363164;28;20237;-71
2023/02/28 16:59:40;;;;;;;7.87;7.17;;;8.50;28.80;;;;;;10363111;28;20222;-71
2023/02/28 17:04:43;;;;;;;7.87;7.10;;;8.40;28.90;;;;;;10365128;28;20233;-70
2023/02/28 17:09:47;;;;;;;6.87;6.27;;;8.30;28.80;;;;;;10363530;28;20249;-71
2023/02/28 17:14:51;;;;;;;7.03;6.33;;;8.30;28.80;;;;;;10360726;28;20237;-73
2023/02/28 17:19:54;;;;;;;7.57;6.87;;;8.20;28.90;;;;;;10362581;28;20237;-71
2023/02/28 17:24:58;;;;;;;7.97;6.40;;;8.20;29.00;;;;;;10362419;28;20238;-72
2023/02/28 17:30:02;;;;;;;7.97;7.13;;;8.10;28.90;;;;;;10362332;28;20754;-70
2023/02/28 17:35:07;;;;;;;10.43;9.20;;;8.10;29.00;;;;;;10361818;28;20229;-70
2023/02/28 17:40:16;;;;;;;7.97;7.17;;;8.10;29.00;;;;;;10362465;28;20238;-71
2023/02/28 17:45:20;;;;;;;7.60;6.93;;;8.00;28.80;;;;;;10361323;28;20226;-71
2023/02/28 17:50:23;;;;;;;8.90;7.23;;;8.00;29.00;;;;;;10362942;28;20245;-70
2023/02/28 17:55:27;;;;;;;8.80;7.13;;;7.90;29.00;;;;;;10358659;28;20237;-70
2023/02/28 18:00:33;;;;;;;12.30;7.23;;;7.80;28.90;;;;;;10361859;28;20241;-71
2023/02/28 18:05:37;;;;;;;7.87;7.17;;;7.80;29.00;;;;;;10360177;28;20230;-70
2023/02/28 18:10:41;;;;;;;7.77;6.97;;;7.70;29.00;;;;;;10359649;28;20273;-70
2023/02/28 18:15:44;;;;;;;8.60;7.60;;;7.60;29.00;;;;;;10356885;28;20230;-69
2023/02/28 18:20:49;;;;;;;8.53;7.17;;;7.50;29.00;;;;;;10356448;28;20237;-71
2023/02/28 18:25:54;;;;;;;7.70;7.00;;;7.40;29.10;;;;;;10359136;28;20649;-69
2023/02/28 18:30:57;;;;;;;8.00;7.20;;;7.30;29.00;;;;;;10359430;28;20234;-69
2023/02/28 18:36:00;;;;;;;7.77;6.97;;;7.30;29.10;;;;;;10360530;28;20231;-70
2023/02/28 18:41:07;;;;;;;7.73;6.90;;;7.20;29.30;;;;;;10360606;28;20230;-69
2023/02/28 18:46:12;;;;;;;8.17;7.10;;;7.20;29.30;;;;;;10358321;28;20222;-70
2023/02/28 18:51:18;;;;;;;8.47;7.67;;;7.20;29.40;;;;;;10359786;28;20271;-70
2023/02/28 18:56:24;;;;;;;8.13;7.33;;;7.20;29.50;;;;;;10357491;28;20238;-70
2023/02/28 19:01:30;;;;;;;8.17;7.37;;;7.20;29.50;;;;;;10359965;28;20233;-70
2023/02/28 19:06:36;;;;;;;9.60;7.80;;;7.10;29.50;;;;;;10356732;28;20222;-70
2023/02/28 19:11:41;;;;;;;8.70;7.80;;;7.10;29.50;;;;;;10356633;28;20246;-71
2023/02/28 19:16:45;;;;;;;8.53;7.73;;;7.00;29.50;;;;;;10356770;28;20226;-70
2023/02/28 19:21:49;;;;;;;9.20;8.30;;;7.00;29.50;;;;;;10358543;28;20218;-70
2023/02/28 19:26:53;;;;;;;8.57;7.77;;;6.90;29.50;;;;;;10359411;28;20316;-71
2023/02/28 19:31:56;;;;;;;9.80;8.80;;;6.90;29.60;;;;;;10356404;28;20226;-71
2023/02/28 19:37:00;;;;;;;9.53;8.53;;;6.90;29.70;;;;;;10353791;28;20496;-71
2023/02/28 19:42:04;;;;;;;9.00;8.20;;;6.80;29.60;;;;;;10349998;28;20234;-72
2023/02/28 19:47:08;;;;;;;9.87;8.87;;;6.90;29.70;;;;;;10351373;28;20655;-72
2023/02/28 19:52:11;;;;;;;9.77;8.80;;;6.80;29.70;;;;;;10349369;28;20238;-72
2023/02/28 19:57:18;;;;;;;10.00;9.00;;;6.80;29.80;;;;;;10351835;28;20309;-72
2023/02/28 20:02:22;;;;;;;10.23;9.23;;;6.80;29.90;;;;;;10347350;28;20241;-72
2023/02/28 20:07:26;;;;;;;9.80;8.80;;;6.70;30.40;;;;;;10351466;28;20226;-73
2023/02/28 20:12:30;;;;;;;9.93;8.97;;;6.70;29.90;;;;;;10349852;28;20230;-72
2023/02/28 20:17:33;;;;;;;10.30;9.13;;;6.70;30.00;;;;;;10352652;28;20666;-72
2023/02/28 20:22:36;;;;;;;10.43;9.33;;;6.60;30.00;;;;;;10346466;28;20276;-72
2023/02/28 20:27:41;;;;;;;9.47;8.60;;;6.60;30.00;;;;;;10355042;28;20297;-72
2023/02/28 20:32:44;;;;;;;10.37;9.37;;;6.60;30.00;;;;;;10353187;28;20608;-72
2023/02/28 20:37:48;;;;;;;10.30;9.07;;;6.60;30.00;;;;;;10354730;28;20317;-70
2023/02/28 20:42:52;;;;;;;10.87;9.80;;;6.50;30.70;;;;;;10356091;28;20762;-71
2023/02/28 20:47:55;;;;;;;10.73;9.70;;;6.50;30.10;;;;;;10355055;28;20230;-70
2023/02/28 20:52:58;;;;;;;10.40;9.27;;;6.50;30.20;;;;;;10357233;28;20243;-69
2023/02/28 20:58:03;;;;;;;11.13;9.97;;;6.40;30.20;;;;;;10353648;28;20685;-72
2023/02/28 21:03:06;;;;;;;10.03;9.07;;;6.40;30.30;;;;;;10352233;28;20226;-70
2023/02/28 21:08:09;;;;;;;11.57;9.50;;;6.40;30.20;;;;;;10353951;28;20233;-73
2023/02/28 21:13:14;;;;;;;10.57;9.57;;;6.30;30.30;;;;;;10354679;28;20237;-72
2023/02/28 21:18:17;;;;;;;10.50;9.40;;;6.30;30.40;;;;;;10354871;28;20237;-74
2023/02/28 21:23:20;;;;;;;10.67;9.60;;;6.20;30.30;;;;;;10348174;28;20230;-72
2023/02/28 21:28:25;;;;;;;12.80;10.27;;;6.20;30.40;;;;;;10351456;28;20758;-71
2023/02/28 21:33:28;;;;;;;10.37;9.37;;;6.20;30.50;;;;;;10353427;28;20722;-71
2023/02/28 21:38:32;;;;;;;10.73;9.53;;;6.10;30.50;;;;;;10352333;28;20227;-73
2023/02/28 21:43:37;;;;;;;10.50;9.37;;;6.10;30.50;;;;;;10355721;28;20233;-73
2023/02/28 21:48:41;;;;;;;10.80;9.50;;;6.10;30.70;;;;;;10353086;28;20492;-73
2023/02/28 21:53:45;;;;;;;11.80;10.60;;;6.10;30.60;;;;;;10359212;28;20590;-72
2023/02/28 21:58:50;;;;;;;12.00;10.90;;;6.10;30.80;;;;;;10360149;28;20277;-72
2023/02/28 22:03:53;;;;;;;11.97;10.30;;;6.10;31.00;;;;;;10360834;28;20597;-71
2023/02/28 22:08:58;;;;;;;11.50;10.37;;;6.10;31.00;;;;;;10358977;28;20234;-71
2023/02/28 22:14:02;;;;;;;12.50;11.30;;;6.10;31.10;;;;;;10358111;28;20233;-72
2023/02/28 22:19:07;;;;;;;12.37;11.17;;;6.10;31.10;;;;;;10357870;28;20227;-72
2023/02/28 22:24:10;;;;;;;12.87;11.57;;;6.10;31.10;;;;;;10359883;28;20226;-70
2023/02/28 22:29:15;;;;;;;12.77;11.57;;;6.10;31.00;;;;;;10357271;28;20757;-70
2023/02/28 22:34:18;;;;;;;11.90;10.73;;;6.10;31.00;;;;;;10359266;28;20226;-70
2023/02/28 22:39:21;;;;;;;12.40;11.30;;;6.10;31.00;;;;;;10358694;28;20639;-70
2023/02/28 22:44:26;;;;;;;12.50;11.30;;;6.10;31.00;;;;;;10358449;28;20222;-71
2023/02/28 22:49:29;;;;;;;13.03;11.63;;;6.10;30.90;;;;;;10355545;28;20715;-70
2023/02/28 22:54:32;;;;;;;12.43;11.23;;;6.20;30.90;;;;;;10357742;28;20222;-72
2023/02/28 22:59:36;;;;;;;13.27;11.97;;;6.20;30.90;;;;;;10358301;28;20230;-74
2023/02/28 23:04:39;;;;;;;13.37;12.07;;;6.20;31.00;;;;;;10356869;28;20234;-73
2023/02/28 23:09:43;;;;;;;13.03;11.53;;;6.10;30.90;;;;;;10359366;28;20238;-73
2023/02/28 23:14:48;;;;;;;11.83;10.73;;;6.10;30.90;;;;;;10358059;28;20232;-73
2023/02/28 23:19:51;;;;;;;12.40;11.20;;;6.20;31.10;;;;;;10357924;28;20237;-73
2023/02/28 23:24:54;;;;;;;11.57;10.47;;;6.20;31.10;;;;;;10358677;28;20222;-70
2023/02/28 23:29:58;;;;;;;11.67;10.57;;;6.20;31.10;;;;;;10357048;28;20237;-70
2023/02/28 23:35:01;;;;;;;12.57;11.13;;;6.20;31.10;;;;;;10358411;28;20222;-72
2023/02/28 23:40:07;;;;;;;12.10;10.90;;;6.20;31.10;;;;;;10355169;28;20233;-70
2023/02/28 23:45:12;;;;;;;11.73;10.53;;;6.20;31.00;;;;;;10358454;28;20242;-71
2023/02/28 23:50:15;;;;;;;13.20;11.90;;;6.20;30.90;;;;;;10356742;28;20238;-70
2023/02/28 23:55:19;;;;;;;12.30;11.10;;;6.10;30.90;;;;;;10357398;28;20230;-73
